createdAt,value
2023-04-18T00:00:21.958Z,22.63
2023-04-18T00:05:25.693Z,19.30
2023-04-18T00:10:30.610Z,25.87
2023-04-18T00:15:35.462Z,21.00
2023-04-18T00:20:39.442Z,20.60
2023-04-18T00:25:44.285Z,22.57
2023-04-18T00:30:48.937Z,22.83
2023-04-18T00:35:52.682Z,24.73
2023-04-18T00:40:57.662Z,19.63
2023-04-18T00:46:01.772Z,21.97
2023-04-18T00:51:06.173Z,22.87
2023-04-18T00:56:11.646Z,21.30
2023-04-18T01:01:15.159Z,21.80
2023-04-18T01:06:20.682Z,20.43
2023-04-18T01:11:25.767Z,20.20
2023-04-18T01:16:29.940Z,22.47
2023-04-18T01:21:37.377Z,19.20
2023-04-18T01:26:45.002Z,17.97
2023-04-18T01:31:48.524Z,22.10
2023-04-18T01:36:52.449Z,19.07
2023-04-18T01:41:57.405Z,19.40
2023-04-18T01:47:01.249Z,18.53
2023-04-18T01:52:05.156Z,30.70
2023-04-18T01:57:10.274Z,21.60
2023-04-18T02:02:15.145Z,23.10
2023-04-18T02:07:18.718Z,21.27
2023-04-18T02:12:23.819Z,25.67
2023-04-18T02:17:27.416Z,22.40
2023-04-18T02:22:31.615Z,21.17
2023-04-18T02:27:39.105Z,22.13
2023-04-18T02:32:42.920Z,20.03
2023-04-18T02:37:46.390Z,18.53
2023-04-18T02:42:51.736Z,20.77
2023-04-18T02:47:56.660Z,18.87
2023-04-18T02:53:00.580Z,15.57
2023-04-18T02:58:16.122Z,18.63
2023-04-18T03:03:28.406Z,17.33
2023-04-18T03:08:48.398Z,17.60
2023-04-18T03:13:54.793Z,19.63
2023-04-18T03:19:01.587Z,18.67
2023-04-18T03:24:07.194Z,21.70
2023-04-18T03:29:13.434Z,22.53
2023-04-18T03:34:20.543Z,23.00
2023-04-18T03:39:24.102Z,21.50
2023-04-18T03:44:31.366Z,17.63
2023-04-18T03:49:35.464Z,19.03
2023-04-18T03:54:40.336Z,22.10
2023-04-18T03:59:47.795Z,25.10
2023-04-18T04:04:51.899Z,28.83
2023-04-18T04:09:56.107Z,22.07
2023-04-18T04:15:01.431Z,28.30
2023-04-18T04:20:09.502Z,23.80
2023-04-18T04:25:13.872Z,25.43
2023-04-18T04:30:21.147Z,24.97
2023-04-18T04:35:25.288Z,29.87
2023-04-18T04:40:29.274Z,35.37
2023-04-18T04:45:43.215Z,25.87
2023-04-18T04:50:54.314Z,27.13
2023-04-18T04:55:58.591Z,19.50
2023-04-18T05:01:03.544Z,27.20
2023-04-18T05:06:11.422Z,28.93
2023-04-18T05:11:15.211Z,26.33
2023-04-18T05:16:20.201Z,20.70
2023-04-18T05:21:24.774Z,21.07
2023-04-18T05:26:28.497Z,19.97
2023-04-18T05:31:36.711Z,20.97
2023-04-18T05:36:40.543Z,21.13
2023-04-18T05:41:44.390Z,25.87
2023-04-18T05:46:51.412Z,25.60
2023-04-18T05:51:56.579Z,21.17
2023-04-18T05:57:00.865Z,18.60
2023-04-18T06:02:10.264Z,15.87
2023-04-18T06:07:13.848Z,24.50
2023-04-18T06:12:17.392Z,18.87
2023-04-18T06:17:23.057Z,16.27
2023-04-18T06:22:26.598Z,17.13
2023-04-18T06:27:31.941Z,20.93
2023-04-18T06:32:37.634Z,19.87
2023-04-18T06:37:44.139Z,18.40
2023-04-18T06:42:47.912Z,19.97
2023-04-18T06:47:53.223Z,16.77
2023-04-18T06:52:57.287Z,18.83
2023-04-18T06:58:01.680Z,20.17
2023-04-18T07:03:11.381Z,19.77
2023-04-18T07:08:15.598Z,18.03
2023-04-18T07:13:18.997Z,27.53
2023-04-18T07:18:36.752Z,26.67
2023-04-18T07:23:41.644Z,18.70
2023-04-18T07:28:45.148Z,18.67
2023-04-18T07:33:50.163Z,17.63
2023-04-18T07:38:53.680Z,15.23
2023-04-18T07:43:57.406Z,16.83
2023-04-18T07:49:03.691Z,17.20
2023-04-18T07:54:07.375Z,20.27
2023-04-18T07:59:10.821Z,15.80
2023-04-18T08:04:15.918Z,16.57
2023-04-18T08:09:20.681Z,15.83
2023-04-18T08:14:24.199Z,18.87
2023-04-18T08:19:29.099Z,14.80
2023-04-18T08:24:32.793Z,12.67
2023-04-18T08:29:36.253Z,12.17
2023-04-18T08:34:41.109Z,13.37
2023-04-18T08:39:45.008Z,13.70
2023-04-18T08:44:48.628Z,17.97
2023-04-18T08:49:53.968Z,15.30
2023-04-18T08:54:57.824Z,16.93
2023-04-18T09:00:02.076Z,16.93
2023-04-18T09:05:14.525Z,15.27
2023-04-18T09:10:27.572Z,13.50
2023-04-18T09:15:31.338Z,19.63
2023-04-18T09:20:38.307Z,15.13
2023-04-18T09:25:46.873Z,21.33
2023-04-18T09:30:53.163Z,18.50
2023-04-18T09:36:00.465Z,15.83
2023-04-18T09:41:10.050Z,16.23
2023-04-18T09:46:14.609Z,16.37
2023-04-18T09:51:20.115Z,19.77
2023-04-18T09:56:26.803Z,15.07
2023-04-18T10:01:31.005Z,19.97
2023-04-18T10:06:39.676Z,14.70
2023-04-18T10:11:43.864Z,22.20
2023-04-18T10:16:49.262Z,14.70
2023-04-18T10:21:57.168Z,21.93
2023-04-18T10:27:00.571Z,12.03
2023-04-18T10:32:07.673Z,12.17
2023-04-18T10:37:14.320Z,17.17
2023-04-18T10:42:17.839Z,14.40
2023-04-18T10:47:24.240Z,15.73
2023-04-18T10:52:30.815Z,16.07
2023-04-18T10:57:42.300Z,16.47
2023-04-18T11:02:57.962Z,12.63
2023-04-18T11:08:03.203Z,9.50
2023-04-18T11:13:07.244Z,11.60
2023-04-18T11:18:11.045Z,12.93
2023-04-18T11:23:21.574Z,8.50
2023-04-18T11:28:26.090Z,8.87
2023-04-18T11:33:30.401Z,10.30
2023-04-18T11:38:35.993Z,12.90
2023-04-18T11:43:43.650Z,9.00
2023-04-18T11:48:47.895Z,9.27
2023-04-18T11:53:53.384Z,9.30
2023-04-18T11:58:57.152Z,11.60
2023-04-18T12:04:05.253Z,6.75
2023-04-18T12:09:15.168Z,8.95
2023-04-18T12:14:22.372Z,10.80
2023-04-18T12:19:28.852Z,9.93
2023-04-18T12:24:34.659Z,8.57
2023-04-18T12:29:38.514Z,10.95
2023-04-18T12:34:41.930Z,11.25
2023-04-18T12:39:47.013Z,9.50
2023-04-18T12:44:50.707Z,7.83
2023-04-18T12:49:54.197Z,7.78
2023-04-18T12:54:59.469Z,6.97
2023-04-18T13:00:04.919Z,8.57
2023-04-18T13:05:10.094Z,7.22
2023-04-18T13:10:16.214Z,9.33
2023-04-18T13:15:22.789Z,10.97
2023-04-18T13:20:26.357Z,6.60
2023-04-18T13:25:31.416Z,5.97
2023-04-18T13:30:36.030Z,8.13
2023-04-18T13:35:39.501Z,6.73
2023-04-18T13:40:44.396Z,7.50
2023-04-18T13:45:48.170Z,9.57
2023-04-18T13:50:51.673Z,7.43
2023-04-18T13:55:57.335Z,10.80
2023-04-18T14:01:01.019Z,8.93
2023-04-18T14:06:04.655Z,7.07
2023-04-18T14:11:09.792Z,6.53
2023-04-18T14:16:14.903Z,8.43
2023-04-18T14:21:18.817Z,9.17
2023-04-18T14:26:24.496Z,9.87
2023-04-18T14:31:28.532Z,9.17
2023-04-18T14:36:32.751Z,12.13
2023-04-18T14:41:37.620Z,8.40
2023-04-18T14:46:41.389Z,11.93
2023-04-18T14:51:45.036Z,11.20
2023-04-18T14:56:50.402Z,11.87
2023-04-18T15:01:54.002Z,14.13
2023-04-18T15:06:57.783Z,11.83
2023-04-18T15:12:02.964Z,12.17
2023-04-18T15:17:06.977Z,15.67
2023-04-18T15:22:10.931Z,15.33
2023-04-18T15:27:16.023Z,11.70
2023-04-18T15:32:20.929Z,11.30
2023-04-18T15:37:24.824Z,11.40
2023-04-18T15:42:31.556Z,11.40
2023-04-18T15:47:35.466Z,9.00
2023-04-18T15:52:40.981Z,9.87
2023-04-18T15:57:46.470Z,9.90
2023-04-18T16:02:50.041Z,12.67
2023-04-18T16:07:53.936Z,12.43
2023-04-18T16:12:59.640Z,15.03
2023-04-18T16:18:03.302Z,14.20
2023-04-18T16:23:07.236Z,10.37
2023-04-18T16:28:12.136Z,14.90
2023-04-18T16:33:15.753Z,10.33
2023-04-18T16:38:19.625Z,11.93
2023-04-18T16:43:26.977Z,13.07
2023-04-18T16:48:30.938Z,9.07
2023-04-18T16:53:35.022Z,11.90
2023-04-18T16:58:40.161Z,9.87
2023-04-18T17:03:45.291Z,11.37
2023-04-18T17:08:49.211Z,10.33
2023-04-18T17:13:54.085Z,11.67
2023-04-18T17:18:57.872Z,10.57
2023-04-18T17:24:03.818Z,11.13
2023-04-18T17:29:09.109Z,12.67
2023-04-18T17:34:12.576Z,12.10
2023-04-18T17:39:17.055Z,12.23
2023-04-18T17:44:22.027Z,12.87
2023-04-18T17:49:31.428Z,13.07
2023-04-18T17:54:35.164Z,14.17
2023-04-18T17:59:40.674Z,21.13
2023-04-18T18:04:44.538Z,19.57
2023-04-18T18:09:48.090Z,10.97
2023-04-18T18:14:52.932Z,12.57
2023-04-18T18:19:56.592Z,9.73
2023-04-18T18:25:00.494Z,13.90
2023-04-18T18:30:06.264Z,11.80
2023-04-18T18:35:13.775Z,13.43
2023-04-18T18:40:17.892Z,12.13
2023-04-18T18:45:23.151Z,11.47
2023-04-18T18:50:28.502Z,9.50
2023-04-18T18:55:32.005Z,12.50
2023-04-18T19:00:39.300Z,10.80
2023-04-18T19:05:42.787Z,8.63
2023-04-18T19:10:46.268Z,13.43
2023-04-18T19:15:51.224Z,12.30
2023-04-18T19:20:54.821Z,13.00
2023-04-18T19:25:58.395Z,12.07
2023-04-18T19:31:03.337Z,12.80
2023-04-18T19:36:07.454Z,14.60
2023-04-18T19:41:11.538Z,19.20
2023-04-18T19:46:16.552Z,19.47
2023-04-18T19:51:20.470Z,16.10
2023-04-18T19:56:23.953Z,17.77
2023-04-18T20:01:29.180Z,16.37
2023-04-18T20:06:32.726Z,16.13
2023-04-18T20:11:36.472Z,11.97
2023-04-18T20:16:45.932Z,11.17
2023-04-18T20:21:49.714Z,12.47
2023-04-18T20:26:53.184Z,12.93
2023-04-18T20:31:58.119Z,18.67
2023-04-18T20:37:01.536Z,13.53
2023-04-18T20:42:05.474Z,15.33
2023-04-18T20:47:10.720Z,15.73
2023-04-18T20:52:14.520Z,15.57
2023-04-18T20:57:18.049Z,17.43
2023-04-18T21:02:23.206Z,13.07
2023-04-18T21:07:26.771Z,16.60
2023-04-18T21:12:30.294Z,15.97
2023-04-18T21:17:35.586Z,16.73
2023-04-18T21:22:39.085Z,16.13
2023-04-18T21:27:42.770Z,14.87
2023-04-18T21:32:49.323Z,16.07
2023-04-18T21:37:53.116Z,13.40
2023-04-18T21:42:56.851Z,13.20
2023-04-18T21:48:03.109Z,11.20
2023-04-18T21:53:06.941Z,12.57
2023-04-18T21:58:10.310Z,12.30
2023-04-18T22:03:15.456Z,13.73
2023-04-18T22:08:19.370Z,9.73
2023-04-18T22:13:23.398Z,13.37
2023-04-18T22:18:30.504Z,15.07
2023-04-18T22:23:33.963Z,16.23
2023-04-18T22:28:37.791Z,12.13
2023-04-18T22:33:43.089Z,16.80
2023-04-18T22:38:46.560Z,15.27
2023-04-18T22:43:50.274Z,21.53
2023-04-18T22:48:55.627Z,17.13
2023-04-18T22:53:59.445Z,14.53
2023-04-18T22:59:03.189Z,16.03
2023-04-18T23:04:08.446Z,18.30
2023-04-18T23:09:12.119Z,16.03
2023-04-18T23:14:16.258Z,19.60
2023-04-18T23:19:21.233Z,19.23
2023-04-18T23:24:24.982Z,19.20
2023-04-18T23:29:28.854Z,23.00
2023-04-18T23:34:33.796Z,19.83
2023-04-18T23:39:37.606Z,17.53
2023-04-18T23:44:41.383Z,19.70
2023-04-18T23:49:46.539Z,23.43
2023-04-18T23:54:50.009Z,25.10
2023-04-18T23:59:53.856Z,23.03
